Time;durP1;ratioP1;P1;durP2;ratioP2;P2;SDS_P1;SDS_P2;PMS_P1;PMS_P2;Temp;Humidity;BMP_temperature;BMP_pressure;BME280_temperature;BME280_humidity;BME280_pressure;Samples;Min_cycle;Max_cycle;Signal;HPM_P1;HPM_P2
2022/12/24 00:02:11;;;;;;;17.55;12.25;;;9.20;99.90;;;;;;4996263;28;20034;-76
2022/12/24 00:04:37;;;;;;;20.23;14.05;;;9.20;99.90;;;;;;4982047;28;20154;-75
2022/12/24 00:07:03;;;;;;;19.65;15.60;;;9.10;99.90;;;;;;4973843;28;20030;-76
2022/12/24 00:09:29;;;;;;;20.48;14.63;;;9.10;99.90;;;;;;4986461;28;20031;-76
2022/12/24 00:11:55;;;;;;;25.25;15.50;;;9.10;99.90;;;;;;4992497;28;20037;-76
2022/12/24 00:14:21;;;;;;;26.38;17.05;;;9.00;99.90;;;;;;4971896;28;20469;-76
2022/12/24 00:16:47;;;;;;;24.40;18.92;;;9.00;99.90;;;;;;4973571;28;20018;-76
2022/12/24 00:19:13;;;;;;;30.70;22.73;;;9.00;99.90;;;;;;4989658;28;20054;-76
2022/12/24 00:21:39;;;;;;;30.23;22.10;;;8.90;99.90;;;;;;4992625;28;20094;-76
2022/12/24 00:24:05;;;;;;;25.30;15.98;;;8.90;99.90;;;;;;4990655;28;20031;-76
2022/12/24 00:26:32;;;;;;;23.92;15.55;;;9.00;99.90;;;;;;5009852;28;20477;-76
2022/12/24 00:28:58;;;;;;;19.90;16.02;;;9.00;99.90;;;;;;5010192;28;20041;-76
2022/12/24 00:31:24;;;;;;;20.25;15.48;;;9.00;99.90;;;;;;4998947;28;20503;-76
2022/12/24 00:33:50;;;;;;;19.63;13.38;;;9.00;99.90;;;;;;4997249;28;20060;-76
2022/12/24 00:36:17;;;;;;;18.20;12.38;;;8.90;99.90;;;;;;5014152;28;20030;-76
2022/12/24 00:38:43;;;;;;;22.63;14.82;;;8.90;99.90;;;;;;4995654;28;20743;-76
2022/12/24 00:41:27;;;;;;;20.85;14.40;;;8.80;99.90;;;;;;5014880;28;20014;-76
2022/12/24 00:43:59;;;;;;;19.33;14.00;;;8.80;99.90;;;;;;4988979;28;20022;-76
2022/12/24 00:46:27;;;;;;;18.15;13.68;;;8.70;99.90;;;;;;5015972;28;20073;-76
2022/12/24 00:48:53;;;;;;;16.35;12.63;;;8.70;99.90;;;;;;5007595;28;20031;-76
2022/12/24 00:51:20;;;;;;;17.50;10.93;;;8.70;99.90;;;;;;5015288;28;20030;-76
2022/12/24 00:53:47;;;;;;;19.40;12.90;;;8.70;99.90;;;;;;5008557;28;20038;-76
2022/12/24 00:56:12;;;;;;;15.93;12.20;;;8.70;99.90;;;;;;4997373;28;20029;-76
2022/12/24 00:58:38;;;;;;;22.67;12.63;;;8.70;99.90;;;;;;4995192;28;20027;-75
2022/12/24 01:01:05;;;;;;;16.83;11.68;;;8.70;99.90;;;;;;5014817;28;20025;-76
2022/12/24 01:03:37;;;;;;;17.80;12.73;;;8.70;99.90;;;;;;4992282;28;20039;-75
2022/12/24 01:06:08;;;;;;;18.05;11.73;;;8.70;99.90;;;;;;5005080;28;20371;-76
2022/12/24 01:08:35;;;;;;;30.90;12.57;;;8.80;99.90;;;;;;4998343;28;20033;-76
2022/12/24 01:11:03;;;;;;;17.88;12.10;;;8.90;99.90;;;;;;5007118;28;20443;-76
2022/12/24 01:13:29;;;;;;;23.65;11.85;;;8.90;99.90;;;;;;4995249;28;20038;-76
2022/12/24 01:15:55;;;;;;;19.45;10.63;;;8.90;99.90;;;;;;5005659;28;20032;-76
2022/12/24 01:18:21;;;;;;;14.15;11.23;;;9.00;99.90;;;;;;4997322;28;20026;-75
2022/12/24 01:21:00;;;;;;;14.13;9.90;;;9.00;99.90;;;;;;4999229;28;20093;-76
2022/12/24 01:23:26;;;;;;;12.02;9.35;;;8.90;99.90;;;;;;5009998;28;20108;-76
2022/12/24 01:25:52;;;;;;;19.65;10.98;;;8.90;99.90;;;;;;4986162;28;20042;-75
2022/12/24 01:28:18;;;;;;;15.32;8.70;;;8.90;99.90;;;;;;4978304;28;20042;-76
2022/12/24 01:30:44;;;;;;;17.88;12.63;;;8.90;99.90;;;;;;4976476;28;20073;-76
2022/12/24 01:33:10;;;;;;;17.20;11.00;;;8.80;99.90;;;;;;4997809;28;20038;-76
2022/12/24 01:35:40;;;;;;;19.80;11.05;;;8.80;99.90;;;;;;4979984;28;20044;-76
2022/12/24 01:38:06;;;;;;;17.48;11.00;;;8.70;99.90;;;;;;4996265;28;20125;-76
2022/12/24 01:43:26;;;;;;;16.00;10.15;;;8.60;99.90;;;;;;4995525;28;20068;-76
2022/12/24 01:45:56;;;;;;;16.88;10.80;;;8.60;99.90;;;;;;4993665;28;20495;-76
2022/12/24 01:48:44;;;;;;;15.18;11.90;;;8.60;99.90;;;;;;4993335;28;20030;-76
2022/12/24 01:51:43;;;;;;;13.38;10.90;;;8.50;99.90;;;;;;4979439;28;20113;-76
2022/12/24 01:54:16;;;;;;;15.65;11.60;;;8.50;99.90;;;;;;4989220;28;20152;-76
2022/12/24 01:56:45;;;;;;;17.10;13.10;;;8.40;99.90;;;;;;5000194;28;20029;-76
2022/12/24 01:59:15;;;;;;;18.13;13.20;;;8.50;99.90;;;;;;4980952;28;20035;-76
2022/12/24 02:01:41;;;;;;;24.45;14.05;;;8.40;99.90;;;;;;4989944;28;20061;-75
2022/12/24 02:04:33;;;;;;;17.60;13.90;;;8.40;99.90;;;;;;4988217;28;20034;-76
2022/12/24 02:06:59;;;;;;;20.73;15.15;;;8.40;99.90;;;;;;4988548;28;20502;-76
2022/12/24 02:09:26;;;;;;;19.92;14.40;;;8.40;99.90;;;;;;4986910;28;20030;-76
2022/12/24 02:11:52;;;;;;;20.42;15.75;;;8.40;99.90;;;;;;4993352;28;20015;-76
2022/12/24 02:14:18;;;;;;;24.48;14.45;;;8.30;99.90;;;;;;4979652;28;20483;-75
2022/12/24 02:17:16;;;;;;;18.77;14.57;;;8.30;99.90;;;;;;4993509;28;20057;-76
2022/12/24 02:20:20;;;;;;;28.50;16.70;;;8.30;99.90;;;;;;4980261;28;20046;-76
2022/12/24 02:23:17;;;;;;;23.60;16.50;;;8.30;99.90;;;;;;4968894;28;20035;-76
2022/12/24 02:25:57;;;;;;;22.40;17.50;;;8.30;99.90;;;;;;4980842;28;20053;-76
2022/12/24 02:28:55;;;;;;;24.73;16.90;;;8.20;99.90;;;;;;4992854;28;20034;-75
2022/12/24 02:31:47;;;;;;;23.30;15.45;;;8.20;99.90;;;;;;4937465;28;20054;-75
2022/12/24 02:34:27;;;;;;;25.85;15.18;;;8.20;99.90;;;;;;4986770;28;20035;-76
2022/12/24 02:37:11;;;;;;;22.20;15.83;;;8.20;99.90;;;;;;4981709;28;20025;-76
2022/12/24 02:39:45;;;;;;;26.23;16.25;;;8.10;99.90;;;;;;4987397;28;20038;-75
2022/12/24 02:42:16;;;;;;;24.90;16.80;;;8.10;99.90;;;;;;4988100;28;20386;-76
2022/12/24 02:45:00;;;;;;;22.08;15.50;;;8.10;99.90;;;;;;4987422;28;20026;-76
2022/12/24 02:47:27;;;;;;;27.67;17.17;;;8.10;99.90;;;;;;4979130;28;20027;-76
2022/12/24 02:49:53;;;;;;;24.27;15.82;;;8.00;99.90;;;;;;4979016;28;20033;-76
2022/12/24 02:52:38;;;;;;;22.27;16.30;;;8.00;99.90;;;;;;4996650;28;20014;-75
2022/12/24 02:55:45;;;;;;;22.08;16.48;;;7.90;99.90;;;;;;4970866;28;20030;-76
2022/12/24 02:59:05;;;;;;;22.00;14.93;;;7.90;99.90;;;;;;4956186;28;20501;-76
2022/12/24 03:01:41;;;;;;;21.02;15.63;;;7.80;99.90;;;;;;4891433;29;20060;-76
2022/12/24 03:04:40;;;;;;;20.45;15.77;;;7.90;99.90;;;;;;4884261;29;20025;-76
2022/12/24 03:07:20;;;;;;;21.80;15.90;;;7.80;99.90;;;;;;4966409;28;20073;-76
2022/12/24 03:10:00;;;;;;;21.80;16.05;;;7.80;99.90;;;;;;4988893;28;20034;-76
2022/12/24 03:12:32;;;;;;;32.90;17.53;;;7.80;99.90;;;;;;4995448;28;20031;-76
2022/12/24 03:14:59;;;;;;;23.73;16.33;;;7.70;99.90;;;;;;4984942;28;20033;-76
2022/12/24 03:17:26;;;;;;;30.10;18.58;;;7.70;99.90;;;;;;4993946;28;20054;-76
2022/12/24 03:19:54;;;;;;;25.23;15.50;;;7.70;99.90;;;;;;4988180;28;20631;-76
2022/12/24 03:22:22;;;;;;;20.58;14.73;;;7.70;99.90;;;;;;4996313;28;20026;-76
2022/12/24 03:24:48;;;;;;;25.60;16.42;;;7.80;99.90;;;;;;4976030;28;20042;-76
2022/12/24 03:27:14;;;;;;;23.88;15.80;;;7.80;99.90;;;;;;4996581;28;20439;-76
2022/12/24 03:29:41;;;;;;;21.02;15.25;;;7.80;99.90;;;;;;4990943;28;20452;-76
2022/12/24 03:32:07;;;;;;;22.42;15.02;;;7.90;99.90;;;;;;4997247;28;20015;-76
2022/12/24 03:34:33;;;;;;;21.17;14.30;;;7.90;99.90;;;;;;4977560;28;20081;-76
2022/12/24 03:36:59;;;;;;;20.77;14.00;;;7.90;99.90;;;;;;4970555;28;20021;-76
2022/12/24 03:39:25;;;;;;;19.25;10.93;;;7.80;99.90;;;;;;4978048;28;20494;-76
2022/12/24 03:41:51;;;;;;;16.85;12.07;;;7.80;99.90;;;;;;4980629;28;20015;-76
2022/12/24 03:44:16;;;;;;;16.73;11.82;;;7.80;99.90;;;;;;4985186;28;20061;-75
2022/12/24 03:46:42;;;;;;;17.00;10.32;;;7.80;99.90;;;;;;4998058;28;20089;-76
2022/12/24 03:49:08;;;;;;;19.52;12.05;;;7.80;99.90;;;;;;4987378;28;20027;-75
2022/12/24 03:51:34;;;;;;;18.23;11.48;;;7.70;99.90;;;;;;4997536;28;20391;-75
2022/12/24 03:54:00;;;;;;;19.42;12.05;;;7.70;99.90;;;;;;4987867;28;20038;-75
2022/12/24 03:56:26;;;;;;;22.98;12.65;;;7.60;99.90;;;;;;4980347;28;20146;-76
2022/12/24 03:58:52;;;;;;;20.75;13.13;;;7.70;99.90;;;;;;4979492;28;20026;-75
2022/12/24 04:01:18;;;;;;;17.50;9.80;;;7.60;99.90;;;;;;4965963;28;20130;-76
2022/12/24 04:03:44;;;;;;;17.60;10.65;;;7.60;99.90;;;;;;4966099;28;20055;-76
2022/12/24 04:06:16;;;;;;;15.82;12.90;;;7.60;99.90;;;;;;4987700;28;20026;-76
2022/12/24 04:08:42;;;;;;;14.13;11.20;;;7.60;99.90;;;;;;4989394;28;20030;-76
2022/12/24 04:11:10;;;;;;;24.77;12.90;;;7.50;99.90;;;;;;4979780;28;20022;-76
2022/12/24 04:13:36;;;;;;;19.02;12.20;;;7.50;99.90;;;;;;4979197;28;20069;-76
2022/12/24 04:16:09;;;;;;;14.20;10.38;;;7.50;99.90;;;;;;4979816;28;20033;-75
2022/12/24 04:18:35;;;;;;;14.98;10.27;;;7.40;99.90;;;;;;4991037;28;20034;-76
2022/12/24 04:21:01;;;;;;;15.38;8.48;;;7.40;99.90;;;;;;4979867;28;20072;-76
2022/12/24 04:23:30;;;;;;;17.83;10.45;;;7.50;99.90;;;;;;4991008;28;20029;-75
2022/12/24 04:25:58;;;;;;;15.93;10.70;;;7.40;99.90;;;;;;4969325;28;20046;-76
2022/12/24 04:28:24;;;;;;;15.65;10.82;;;7.50;99.90;;;;;;4995002;28;20062;-76
2022/12/24 04:30:50;;;;;;;17.52;12.15;;;7.50;99.90;;;;;;4980219;28;20072;-76
2022/12/24 04:33:16;;;;;;;17.98;10.95;;;7.50;99.90;;;;;;4994943;28;20637;-75
2022/12/24 04:35:42;;;;;;;12.00;9.70;;;7.40;99.90;;;;;;4979947;28;20121;-76
2022/12/24 04:38:09;;;;;;;13.88;9.23;;;7.30;99.90;;;;;;4978861;28;20050;-76
2022/12/24 04:40:35;;;;;;;14.00;8.82;;;7.30;99.90;;;;;;4967440;28;20491;-76
2022/12/24 04:43:01;;;;;;;20.67;9.40;;;7.30;99.90;;;;;;4991878;28;20030;-75
2022/12/24 04:45:27;;;;;;;11.10;8.35;;;7.30;99.90;;;;;;4979686;28;20018;-76
2022/12/24 04:47:53;;;;;;;16.70;10.10;;;7.20;99.90;;;;;;4977686;28;20030;-76
2022/12/24 04:50:19;;;;;;;18.02;9.68;;;7.20;99.90;;;;;;4989651;28;20102;-75
2022/12/24 04:52:44;;;;;;;16.73;10.40;;;7.20;99.90;;;;;;4978278;28;20041;-76
2022/12/24 04:55:10;;;;;;;15.82;10.05;;;7.20;99.90;;;;;;4990709;28;20394;-75
2022/12/24 04:57:36;;;;;;;11.65;9.45;;;7.20;99.90;;;;;;4976823;28;20027;-75
2022/12/24 05:00:04;;;;;;;16.63;8.68;;;7.10;99.90;;;;;;4975877;28;20022;-76
2022/12/24 05:02:30;;;;;;;12.10;8.32;;;7.20;99.90;;;;;;4977727;28;20073;-75
2022/12/24 05:04:56;;;;;;;16.10;9.50;;;7.20;99.90;;;;;;4984335;28;20018;-75
2022/12/24 05:07:22;;;;;;;15.32;8.48;;;7.10;99.90;;;;;;4996783;28;20081;-75
2022/12/24 05:09:48;;;;;;;16.13;9.90;;;7.10;99.90;;;;;;4989859;28;20031;-76
2022/12/24 05:12:14;;;;;;;13.25;8.38;;;7.10;99.90;;;;;;4997593;28;20109;-76
2022/12/24 05:14:40;;;;;;;11.02;9.00;;;7.10;99.90;;;;;;4974958;28;20034;-76
2022/12/24 05:17:06;;;;;;;14.23;8.40;;;7.10;99.90;;;;;;4980529;28;20030;-75
2022/12/24 05:19:32;;;;;;;11.98;9.27;;;7.00;99.90;;;;;;4977043;28;20038;-76
2022/12/24 05:27:26;;;;;;;17.65;9.95;;;7.00;99.90;;;;;;5017956;28;20548;-75
2022/12/24 05:29:52;;;;;;;11.65;8.65;;;6.90;99.90;;;;;;4998900;28;20121;-76
2022/12/24 05:32:18;;;;;;;21.50;12.95;;;6.90;99.90;;;;;;5018084;28;20029;-75
2022/12/24 05:34:44;;;;;;;16.98;10.82;;;6.80;99.90;;;;;;5000744;28;20057;-76
2022/12/24 05:37:09;;;;;;;13.73;10.05;;;6.80;99.90;;;;;;5001555;28;20022;-76
2022/12/24 05:39:35;;;;;;;15.70;10.43;;;6.80;99.90;;;;;;4991970;28;20034;-75
2022/12/24 05:42:01;;;;;;;14.13;10.25;;;6.80;99.90;;;;;;5002159;28;20068;-75
2022/12/24 05:44:27;;;;;;;14.82;9.52;;;6.80;99.90;;;;;;5008783;28;20061;-75
2022/12/24 05:46:53;;;;;;;12.43;9.35;;;6.80;99.90;;;;;;5019682;28;20072;-75
2022/12/24 05:49:18;;;;;;;12.73;9.98;;;6.80;99.90;;;;;;5009781;28;20508;-75
2022/12/24 05:51:44;;;;;;;17.77;9.88;;;6.70;99.90;;;;;;5019600;28;20022;-75
2022/12/24 05:54:10;;;;;;;15.43;10.93;;;6.70;99.90;;;;;;5010856;28;20026;-75
2022/12/24 05:56:36;;;;;;;18.98;9.98;;;6.70;99.90;;;;;;5019553;28;20030;-75
2022/12/24 05:59:02;;;;;;;17.83;11.73;;;6.70;99.90;;;;;;5007432;28;20030;-75
2022/12/24 06:01:28;;;;;;;16.60;11.68;;;6.70;99.90;;;;;;5001905;28;20018;-76
2022/12/24 06:03:55;;;;;;;21.17;12.40;;;6.70;99.90;;;;;;5000728;28;20482;-75
2022/12/24 06:06:25;;;;;;;21.30;12.10;;;6.80;99.90;;;;;;5001656;28;20026;-75
2022/12/24 06:08:53;;;;;;;18.40;10.67;;;6.80;99.90;;;;;;5000994;28;20029;-75
2022/12/24 06:11:22;;;;;;;19.75;11.48;;;6.80;99.90;;;;;;5012135;28;20026;-75
2022/12/24 06:13:48;;;;;;;20.13;11.88;;;6.80;99.90;;;;;;5013175;28;20033;-77
2022/12/24 06:16:17;;;;;;;20.52;12.60;;;6.80;99.90;;;;;;4999846;28;20486;-75
2022/12/24 06:18:43;;;;;;;19.17;12.60;;;6.80;99.90;;;;;;5000163;28;20078;-75
2022/12/24 06:21:10;;;;;;;20.48;12.45;;;6.90;99.90;;;;;;5018532;28;20494;-75
2022/12/24 06:23:38;;;;;;;23.38;12.60;;;6.90;99.90;;;;;;5011334;28;20018;-75
2022/12/24 06:26:06;;;;;;;18.23;12.20;;;7.00;99.90;;;;;;4986272;28;20042;-75
2022/12/24 06:28:34;;;;;;;17.80;12.25;;;7.00;99.90;;;;;;4991977;28;20043;-75
2022/12/24 06:31:02;;;;;;;16.42;12.30;;;7.00;99.90;;;;;;4996139;28;20035;-75
2022/12/24 06:33:29;;;;;;;19.25;12.82;;;7.00;99.90;;;;;;4979866;28;20490;-76
2022/12/24 06:35:54;;;;;;;15.85;12.18;;;7.00;99.90;;;;;;4981007;28;20109;-75
2022/12/24 06:38:20;;;;;;;15.43;11.68;;;7.00;99.90;;;;;;4993909;28;20045;-75
2022/12/24 06:40:46;;;;;;;15.13;11.38;;;6.90;99.90;;;;;;4997300;28;20585;-75
2022/12/24 06:43:13;;;;;;;17.05;11.80;;;6.90;99.90;;;;;;4979711;28;20557;-75
2022/12/24 06:45:43;;;;;;;18.88;11.90;;;6.80;99.90;;;;;;4998324;28;20038;-75
2022/12/24 06:48:09;;;;;;;12.73;10.45;;;6.80;99.90;;;;;;4979220;28;20046;-75
2022/12/24 06:50:35;;;;;;;16.50;11.50;;;6.80;99.90;;;;;;4977804;28;20030;-75
2022/12/24 06:53:01;;;;;;;13.93;10.68;;;6.70;99.90;;;;;;4994255;28;20590;-75
2022/12/24 06:55:27;;;;;;;16.10;11.80;;;6.70;99.90;;;;;;4980507;28;20104;-76
2022/12/24 06:57:53;;;;;;;19.77;12.10;;;6.70;99.90;;;;;;4992249;28;20030;-76
2022/12/24 07:00:20;;;;;;;17.77;11.93;;;6.60;99.90;;;;;;4994691;28;20027;-75
2022/12/24 07:02:46;;;;;;;15.13;11.45;;;6.60;99.90;;;;;;4976768;28;20023;-76
2022/12/24 07:05:13;;;;;;;21.40;11.70;;;6.60;99.90;;;;;;4978634;28;20081;-76
2022/12/24 07:07:41;;;;;;;18.75;12.77;;;6.60;99.90;;;;;;4977841;28;20018;-75
2022/12/24 07:10:10;;;;;;;15.52;11.45;;;6.50;99.90;;;;;;4981268;28;20430;-75
2022/12/24 07:12:36;;;;;;;15.90;11.48;;;6.50;99.90;;;;;;4977350;28;20030;-75
2022/12/24 07:15:02;;;;;;;20.80;13.23;;;6.50;99.90;;;;;;4979934;28;20037;-75
2022/12/24 07:17:28;;;;;;;15.45;11.35;;;6.40;99.90;;;;;;4979272;28;20495;-75
2022/12/24 07:19:54;;;;;;;19.63;11.52;;;6.40;99.90;;;;;;4977826;28;20084;-75
2022/12/24 07:22:20;;;;;;;16.23;11.38;;;6.40;99.90;;;;;;4978436;28;20073;-75
2022/12/24 07:24:46;;;;;;;19.05;11.88;;;6.40;99.90;;;;;;4999318;28;20030;-75
2022/12/24 07:27:12;;;;;;;14.10;10.98;;;6.40;99.90;;;;;;5016946;28;20026;-75
2022/12/24 07:29:39;;;;;;;16.13;11.15;;;6.40;99.90;;;;;;5007137;28;20018;-75
2022/12/24 07:32:05;;;;;;;17.27;10.50;;;6.40;99.90;;;;;;5017190;28;20402;-75
2022/12/24 07:34:31;;;;;;;16.77;10.75;;;6.40;99.90;;;;;;4992984;28;20073;-75
2022/12/24 07:36:56;;;;;;;15.20;10.23;;;6.40;99.90;;;;;;5014127;28;20014;-75
2022/12/24 07:39:22;;;;;;;14.82;10.77;;;6.40;99.90;;;;;;5011373;28;20025;-75
2022/12/24 07:41:49;;;;;;;14.98;10.38;;;6.50;99.90;;;;;;4999068;28;20075;-75
2022/12/24 07:44:15;;;;;;;17.60;10.02;;;6.50;99.90;;;;;;4997947;28;20218;-74
2022/12/24 07:46:43;;;;;;;17.85;10.07;;;6.50;99.90;;;;;;5017019;28;20030;-75
2022/12/24 07:49:09;;;;;;;16.52;10.25;;;6.50;99.90;;;;;;4995718;28;20442;-75
2022/12/24 07:51:35;;;;;;;14.50;11.63;;;6.60;99.90;;;;;;4999877;28;20022;-75
2022/12/24 07:54:03;;;;;;;15.05;10.48;;;6.60;99.90;;;;;;5008642;28;20827;-75
2022/12/24 07:56:30;;;;;;;15.38;11.65;;;6.70;99.90;;;;;;5017468;28;20025;-75
2022/12/24 07:58:55;;;;;;;16.38;11.82;;;6.70;99.90;;;;;;5004889;28;20506;-75
2022/12/24 08:01:21;;;;;;;19.40;10.90;;;6.80;99.90;;;;;;5000001;28;20437;-74
2022/12/24 08:03:50;;;;;;;16.40;11.10;;;6.80;99.90;;;;;;5010638;28;20030;-75
2022/12/24 08:06:16;;;;;;;15.02;11.07;;;6.80;99.90;;;;;;5015423;28;20028;-74
2022/12/24 08:08:42;;;;;;;16.42;12.50;;;6.90;99.90;;;;;;5010483;28;20027;-75
2022/12/24 08:11:08;;;;;;;17.25;11.80;;;6.90;99.90;;;;;;4999423;28;20045;-75
2022/12/24 08:13:33;;;;;;;14.90;11.80;;;7.00;99.90;;;;;;4993040;28;20034;-75
2022/12/24 08:15:59;;;;;;;14.70;10.57;;;6.90;99.90;;;;;;5017275;28;20545;-75
2022/12/24 08:18:25;;;;;;;24.92;11.90;;;6.90;99.90;;;;;;4994999;28;20548;-74
2022/12/24 08:20:51;;;;;;;13.30;10.20;;;7.00;99.90;;;;;;5017606;28;20049;-74
2022/12/24 08:23:17;;;;;;;14.20;10.40;;;7.00;99.90;;;;;;5010473;28;20026;-74
2022/12/24 08:25:45;;;;;;;14.55;10.90;;;7.10;99.90;;;;;;5014962;28;20137;-74
2022/12/24 08:28:12;;;;;;;13.55;10.27;;;7.10;99.90;;;;;;5011220;28;20478;-74
2022/12/24 08:30:38;;;;;;;12.00;10.30;;;7.10;99.90;;;;;;5013850;28;20030;-74
2022/12/24 08:33:05;;;;;;;15.70;11.35;;;7.20;99.90;;;;;;4997275;28;20030;-75
2022/12/24 08:35:30;;;;;;;15.55;12.55;;;7.30;99.90;;;;;;4998654;28;20025;-74
2022/12/24 08:37:56;;;;;;;16.35;13.48;;;7.30;99.90;;;;;;4995926;28;20040;-75
2022/12/24 08:40:22;;;;;;;17.52;13.13;;;7.40;99.90;;;;;;5019305;28;20037;-75
2022/12/24 08:42:48;;;;;;;19.08;12.18;;;7.40;99.90;;;;;;5003891;28;20521;-75
2022/12/24 08:45:14;;;;;;;18.38;13.18;;;7.40;99.90;;;;;;5005604;28;20029;-74
2022/12/24 08:47:40;;;;;;;17.33;13.52;;;7.50;99.90;;;;;;5020900;28;20570;-74
2022/12/24 08:50:06;;;;;;;15.55;12.27;;;7.60;99.90;;;;;;4998367;28;20464;-74
2022/12/24 08:52:32;;;;;;;23.20;12.75;;;7.60;99.90;;;;;;5021607;28;20061;-76
2022/12/24 08:54:58;;;;;;;23.27;13.32;;;7.70;99.90;;;;;;5014644;28;20053;-74
2022/12/24 08:57:24;;;;;;;18.52;13.07;;;7.80;99.90;;;;;;5004426;28;20092;-74
2022/12/24 08:59:50;;;;;;;14.95;12.65;;;7.90;99.90;;;;;;4996271;28;20081;-74
2022/12/24 09:02:16;;;;;;;16.08;13.25;;;7.90;99.90;;;;;;5022258;28;20021;-74
2022/12/24 09:04:42;;;;;;;18.92;12.85;;;8.00;99.90;;;;;;4997006;28;20018;-75
2022/12/24 09:07:08;;;;;;;18.90;12.75;;;8.00;99.90;;;;;;5023017;28;20014;-75
2022/12/24 09:09:35;;;;;;;19.58;13.20;;;8.10;99.90;;;;;;5016389;28;20486;-75
2022/12/24 09:12:03;;;;;;;21.13;13.45;;;8.20;99.90;;;;;;5004447;28;20022;-75
2022/12/24 09:14:28;;;;;;;18.35;13.63;;;8.30;99.90;;;;;;5001299;28;20037;-75
2022/12/24 09:16:54;;;;;;;18.65;13.93;;;8.50;99.90;;;;;;5018065;28;20022;-75
2022/12/24 09:19:20;;;;;;;15.60;12.82;;;8.60;99.90;;;;;;5002479;28;20034;-75
2022/12/24 09:21:46;;;;;;;18.10;11.77;;;8.70;99.90;;;;;;4999952;28;20023;-75
2022/12/24 09:24:12;;;;;;;20.02;11.73;;;9.00;99.90;;;;;;5016312;28;20064;-75
2022/12/24 09:26:40;;;;;;;14.35;11.10;;;9.10;99.90;;;;;;5005034;28;20042;-75
2022/12/24 09:29:06;;;;;;;15.70;10.57;;;9.20;99.90;;;;;;5018240;28;20029;-75
2022/12/24 09:31:32;;;;;;;17.23;10.52;;;9.40;99.90;;;;;;5005245;28;20085;-75
2022/12/24 09:33:58;;;;;;;15.70;9.90;;;9.50;99.90;;;;;;5013264;28;20486;-75
2022/12/24 09:36:24;;;;;;;10.95;8.88;;;9.70;99.90;;;;;;5018597;28;20083;-75
2022/12/24 09:38:50;;;;;;;11.85;8.38;;;9.80;99.90;;;;;;5015137;28;20029;-76
2022/12/24 09:41:43;;;;;;;11.98;7.97;;;9.90;99.90;;;;;;5018864;28;20026;-76
2022/12/24 09:44:42;;;;;;;13.82;7.72;;;10.10;99.90;;;;;;5012975;28;20030;-76
2022/12/24 09:47:38;;;;;;;13.23;9.48;;;10.20;99.90;;;;;;5013771;28;20022;-76
2022/12/24 09:50:28;;;;;;;16.17;9.65;;;10.30;99.90;;;;;;5014030;28;20481;-75
2022/12/24 09:52:56;;;;;;;13.35;8.52;;;10.40;99.90;;;;;;5017767;28;20025;-75
2022/12/24 09:55:32;;;;;;;13.85;8.75;;;10.60;99.90;;;;;;5013825;28;20030;-75
2022/12/24 09:58:01;;;;;;;12.35;8.63;;;10.70;99.90;;;;;;4998944;28;20058;-75
2022/12/24 10:00:30;;;;;;;13.60;9.70;;;10.70;99.90;;;;;;5003954;28;20014;-75
2022/12/24 10:02:56;;;;;;;11.85;8.00;;;10.80;99.90;;;;;;5013075;28;20030;-76
2022/12/24 10:05:48;;;;;;;12.32;8.82;;;10.90;99.90;;;;;;4993652;28;20062;-76
2022/12/24 10:08:34;;;;;;;12.75;8.38;;;11.00;99.90;;;;;;5013861;28;20025;-75
2022/12/24 10:11:10;;;;;;;11.73;7.20;;;11.20;99.90;;;;;;5001400;28;20060;-75
2022/12/24 10:13:48;;;;;;;13.52;7.50;;;11.30;99.90;;;;;;4998328;28;20029;-75
2022/12/24 10:16:25;;;;;;;15.05;7.75;;;11.50;99.90;;;;;;5014501;28;20037;-75
2022/12/24 10:19:21;;;;;;;11.65;6.85;;;11.60;99.90;;;;;;5001162;28;20548;-76
2022/12/24 10:21:52;;;;;;;12.23;7.90;;;11.80;99.90;;;;;;5015175;28;20116;-75
2022/12/24 10:24:35;;;;;;;13.10;7.75;;;11.90;99.90;;;;;;4993413;28;20037;-76
2022/12/24 10:27:14;;;;;;;14.70;7.40;;;11.90;99.90;;;;;;5017653;28;20398;-76
2022/12/24 10:29:45;;;;;;;10.60;7.70;;;12.00;99.90;;;;;;4998622;28;20030;-75
2022/12/24 10:32:24;;;;;;;13.80;6.22;;;12.00;99.90;;;;;;5001083;28;20017;-76
2022/12/24 10:35:05;;;;;;;9.65;6.78;;;12.10;99.90;;;;;;4995538;28;20042;-76
2022/12/24 10:37:31;;;;;;;15.60;6.85;;;12.20;99.90;;;;;;5016967;28;20028;-76
2022/12/24 10:39:59;;;;;;;10.40;6.00;;;12.30;99.90;;;;;;5008444;28;20026;-76
2022/12/24 10:42:37;;;;;;;8.63;6.30;;;12.30;99.90;;;;;;5016604;28;20557;-75
2022/12/24 10:45:06;;;;;;;10.80;5.80;;;12.40;99.90;;;;;;4991847;28;20084;-75
2022/12/24 10:47:38;;;;;;;13.88;6.55;;;12.40;99.90;;;;;;5016719;28;20491;-75
2022/12/24 10:50:14;;;;;;;10.15;6.28;;;12.40;99.90;;;;;;5011715;28;20442;-75
2022/12/24 10:52:44;;;;;;;12.50;6.30;;;12.50;99.90;;;;;;5017293;28;20506;-76
2022/12/24 10:55:19;;;;;;;7.30;5.20;;;12.50;99.90;;;;;;5004103;28;20057;-76
2022/12/24 10:57:55;;;;;;;7.90;5.22;;;12.50;99.90;;;;;;4997525;28;20018;-76
2022/12/24 11:00:23;;;;;;;8.40;6.43;;;12.60;99.90;;;;;;4986954;28;20402;-76
2022/12/24 11:03:24;;;;;;;9.35;5.80;;;12.60;99.90;;;;;;5011491;28;20029;-76
2022/12/24 11:06:03;;;;;;;;;;;12.70;99.90;;;;;;5008521;28;20098;-76
2022/12/24 11:08:28;;;;;;;11.70;5.97;;;12.70;99.90;;;;;;5010723;28;19913;-76
2022/12/24 11:11:02;;;;;;;8.38;4.88;;;12.70;99.90;;;;;;5011415;28;20410;-75
2022/12/24 11:13:29;;;;;;;7.85;5.50;;;12.80;99.90;;;;;;4998593;28;20113;-76
2022/12/24 11:16:00;;;;;;;7.43;5.07;;;12.90;99.90;;;;;;5012425;28;20037;-76
2022/12/24 11:18:26;;;;;;;10.60;5.65;;;13.00;99.90;;;;;;5011682;28;20043;-76
2022/12/24 11:20:52;;;;;;;7.97;5.47;;;13.00;99.90;;;;;;5000433;28;20101;-76
2022/12/24 11:23:18;;;;;;;8.43;5.05;;;13.10;99.90;;;;;;5012594;28;20089;-76
2022/12/24 11:25:49;;;;;;;6.18;4.47;;;13.10;99.90;;;;;;5014176;28;20056;-74
2022/12/24 11:28:28;;;;;;;9.32;4.78;;;13.20;99.90;;;;;;4995719;28;20089;-75
2022/12/24 11:31:03;;;;;;;7.28;4.70;;;13.20;99.90;;;;;;4997692;28;20036;-75
2022/12/24 11:33:30;;;;;;;6.45;4.38;;;13.30;99.90;;;;;;5014842;28;20134;-76
2022/12/24 11:36:01;;;;;;;9.57;4.35;;;13.30;99.90;;;;;;5016409;28;20030;-73
2022/12/24 11:38:28;;;;;;;8.27;4.38;;;13.40;99.90;;;;;;5013383;28;20032;-73
2022/12/24 11:41:07;;;;;;;6.85;4.47;;;13.50;99.90;;;;;;5010549;28;20445;-75
2022/12/24 11:43:45;;;;;;;5.97;3.97;;;13.50;99.90;;;;;;5009728;28;20076;-76
2022/12/24 11:46:26;;;;;;;9.00;4.60;;;13.60;99.90;;;;;;4998988;28;20029;-76
2022/12/24 11:49:10;;;;;;;7.47;5.15;;;13.70;99.90;;;;;;4998379;28;20037;-76
2022/12/24 11:51:36;;;;;;;9.02;4.75;;;13.70;99.90;;;;;;5016465;28;20113;-75
2022/12/24 11:54:23;;;;;;;10.93;4.72;;;13.80;99.90;;;;;;5011398;28;20497;-73
2022/12/24 11:56:53;;;;;;;8.25;3.97;;;13.80;99.90;;;;;;4998835;28;20029;-73
2022/12/24 11:59:29;;;;;;;;;;;13.80;99.90;;;;;;5011380;28;20026;-73
2022/12/24 12:02:16;;;;;;;9.77;4.60;;;13.90;99.90;;;;;;5014731;28;19909;-75
2022/12/24 12:04:43;;;;;;;7.50;4.60;;;13.90;99.90;;;;;;5011686;28;20022;-76
2022/12/24 12:07:23;;;;;;;8.30;3.97;;;14.00;99.90;;;;;;4998674;28;20026;-73
2022/12/24 12:10:17;;;;;;;10.00;5.07;;;14.00;99.90;;;;;;4998138;28;20444;-73
2022/12/24 12:13:00;;;;;;;8.25;4.65;;;14.10;99.90;;;;;;5009907;28;20042;-73
2022/12/24 12:15:33;;;;;;;6.35;4.60;;;14.20;99.90;;;;;;5000650;28;20022;-73
2022/12/24 12:18:15;;;;;;;5.63;4.38;;;14.20;99.90;;;;;;4998202;28;20030;-73
2022/12/24 12:20:45;;;;;;;6.25;4.22;;;14.30;99.90;;;;;;5005401;28;20014;-73
2022/12/24 12:23:16;;;;;;;5.45;4.25;;;14.40;99.90;;;;;;5011240;28;20026;-74
2022/12/24 12:25:50;;;;;;;5.72;3.90;;;14.40;99.90;;;;;;5008092;28;20057;-74
2022/12/24 12:28:27;;;;;;;7.57;3.47;;;14.40;99.90;;;;;;5012590;28;20027;-73
2022/12/24 12:31:08;;;;;;;5.70;3.20;;;14.40;99.90;;;;;;4998839;28;20026;-74
2022/12/24 12:33:46;;;;;;;7.85;3.70;;;14.40;99.90;;;;;;5009163;28;20390;-74
2022/12/24 12:36:16;;;;;;;7.22;4.45;;;14.50;99.90;;;;;;5015345;28;20114;-73
2022/12/24 12:38:42;;;;;;;5.20;3.83;;;14.50;99.90;;;;;;5013544;28;20022;-73
2022/12/24 12:41:39;;;;;;;16.00;4.93;;;14.50;99.90;;;;;;5016107;28;20505;-73
2022/12/24 12:44:45;;;;;;;5.15;3.25;;;14.50;99.90;;;;;;5001239;28;20482;-74
2022/12/24 12:47:51;;;;;;;5.90;4.03;;;14.60;99.90;;;;;;4950571;28;20027;-74
2022/12/24 12:50:39;;;;;;;7.72;3.42;;;14.60;99.90;;;;;;5009395;28;20524;-73
2022/12/24 12:53:32;;;;;;;4.78;3.58;;;14.70;99.90;;;;;;5012565;28;20058;-73
2022/12/24 12:56:23;;;;;;;6.88;3.35;;;14.70;99.90;;;;;;5001953;28;20023;-73
2022/12/24 12:58:57;;;;;;;6.93;3.15;;;14.70;99.90;;;;;;5005795;28;20030;-73
2022/12/24 13:01:44;;;;;;;7.57;3.67;;;14.70;99.90;;;;;;5006228;28;20018;-73
2022/12/24 13:04:36;;;;;;;4.72;3.00;;;14.70;99.90;;;;;;4998322;28;20026;-72
2022/12/24 13:07:42;;;;;;;8.88;3.72;;;14.70;99.90;;;;;;4993571;28;20029;-72
2022/12/24 13:10:08;;;;;;;4.28;3.33;;;14.80;99.90;;;;;;5007250;28;20038;-72